createdAt,value
2022-09-02T00:01:37.825Z,10.14
2022-09-02T00:04:07.706Z,10.29
2022-09-02T00:06:36.127Z,10.13
2022-09-02T00:09:22.629Z,10.04
2022-09-02T00:11:51.169Z,10.01
2022-09-02T00:14:20.738Z,10.27
2022-09-02T00:16:51.902Z,10.23
2022-09-02T00:19:25.517Z,10.18
2022-09-02T00:21:56.524Z,10.06
2022-09-02T00:24:24.160Z,9.80
2022-09-02T00:26:51.511Z,9.47
2022-09-02T00:29:31.169Z,9.48
2022-09-02T00:31:58.801Z,9.26
2022-09-02T00:34:27.853Z,9.30
2022-09-02T00:36:57.791Z,9.03
2022-09-02T00:39:26.432Z,8.84
2022-09-02T00:41:54.048Z,8.76
2022-09-02T00:44:23.499Z,8.78
2022-09-02T00:46:51.371Z,9.00
2022-09-02T00:49:30.152Z,8.75
2022-09-02T00:52:20.836Z,8.59
2022-09-02T00:54:58.101Z,8.39
2022-09-02T00:57:27.367Z,8.29
2022-09-02T01:00:07.879Z,8.30
2022-09-02T01:02:38.450Z,8.76
2022-09-02T01:05:08.313Z,9.00
2022-09-02T01:07:45.497Z,9.22
2022-09-02T01:10:21.927Z,9.28
2022-09-02T01:12:57.072Z,9.34
2022-09-02T01:15:25.742Z,9.42
2022-09-02T01:17:53.739Z,9.52
2022-09-02T01:20:24.515Z,9.54
2022-09-02T01:22:53.075Z,9.68
2022-09-02T01:25:24.423Z,9.78
2022-09-02T01:28:05.606Z,9.75
2022-09-02T01:30:35.545Z,9.65
2022-09-02T01:33:03.889Z,9.61
2022-09-02T01:35:50.022Z,9.50
2022-09-02T01:38:20.668Z,9.30
2022-09-02T01:40:50.112Z,9.21
2022-09-02T01:43:26.639Z,9.34
2022-09-02T01:45:57.379Z,9.14
2022-09-02T01:48:31.603Z,9.21
2022-09-02T01:51:00.804Z,9.00
2022-09-02T01:53:36.123Z,9.03
2022-09-02T01:56:13.030Z,9.12
2022-09-02T01:58:45.174Z,9.13
2022-09-02T02:01:20.529Z,9.22
2022-09-02T02:03:49.834Z,9.27
2022-09-02T02:06:18.266Z,9.32
2022-09-02T02:08:45.205Z,9.35
2022-09-02T02:11:24.097Z,9.29
2022-09-02T02:13:51.334Z,9.30
2022-09-02T02:16:18.377Z,9.28
2022-09-02T02:18:51.365Z,9.36
2022-09-02T02:21:18.392Z,9.37
2022-09-02T02:23:48.764Z,9.21
2022-09-02T02:26:16.987Z,9.17
2022-09-02T02:28:45.953Z,9.21
2022-09-02T02:31:31.887Z,9.13
2022-09-02T02:34:02.268Z,9.16
2022-09-02T02:36:29.302Z,8.90
2022-09-02T02:38:56.766Z,8.74
2022-09-02T02:41:23.755Z,8.77
2022-09-02T02:44:04.150Z,8.82
2022-09-02T02:46:32.184Z,8.79
2022-09-02T02:48:59.782Z,8.89
2022-09-02T02:51:27.894Z,8.77
2022-09-02T02:53:58.966Z,8.65
2022-09-02T02:56:41.285Z,8.17
2022-09-02T02:59:15.041Z,8.06
2022-09-02T03:01:41.984Z,8.25
2022-09-02T03:04:09.953Z,8.37
2022-09-02T03:06:36.827Z,8.24
2022-09-02T03:09:06.087Z,8.35
2022-09-02T03:11:41.240Z,8.27
2022-09-02T03:14:09.455Z,8.04
2022-09-02T03:17:00.659Z,8.03
2022-09-02T03:19:29.501Z,7.87
2022-09-02T03:21:56.471Z,7.90
2022-09-02T03:24:25.505Z,7.76
2022-09-02T03:26:58.577Z,7.86
2022-09-02T03:29:38.551Z,7.81
2022-09-02T03:32:07.983Z,7.86
2022-09-02T03:34:39.844Z,7.51
2022-09-02T03:37:08.859Z,7.22
2022-09-02T03:39:36.140Z,7.28
2022-09-02T03:42:05.676Z,7.46
2022-09-02T03:44:34.786Z,7.22
2022-09-02T03:47:02.033Z,7.07
2022-09-02T03:49:35.146Z,7.03
2022-09-02T03:52:02.179Z,7.08
2022-09-02T03:54:29.106Z,7.27
2022-09-02T03:56:55.988Z,7.22
2022-09-02T03:59:26.071Z,7.21
2022-09-02T04:01:53.324Z,7.05
2022-09-02T04:04:22.841Z,7.23
2022-09-02T04:06:51.128Z,7.03
2022-09-02T04:09:19.007Z,7.20
2022-09-02T04:11:45.915Z,7.44
2022-09-02T04:14:12.941Z,7.49
2022-09-02T04:16:42.792Z,7.68
2022-09-02T04:19:10.110Z,7.76
2022-09-02T04:21:44.521Z,7.87
2022-09-02T04:24:12.995Z,7.92
2022-09-02T04:26:44.907Z,8.01
2022-09-02T04:29:14.408Z,7.86
2022-09-02T04:31:43.066Z,7.73
2022-09-02T04:34:14.207Z,7.93
2022-09-02T04:36:51.034Z,7.89
2022-09-02T04:39:19.241Z,7.74
2022-09-02T04:41:48.137Z,7.62
2022-09-02T04:44:15.080Z,7.44
2022-09-02T04:46:44.245Z,7.48
2022-09-02T04:49:17.789Z,7.62
2022-09-02T04:51:47.165Z,7.79
2022-09-02T04:54:18.049Z,7.61
2022-09-02T04:56:53.106Z,7.81
2022-09-02T04:59:22.146Z,7.98
2022-09-02T05:01:50.654Z,8.08
2022-09-02T05:04:17.642Z,8.26
2022-09-02T05:06:44.866Z,8.33
2022-09-02T05:09:13.137Z,8.48
2022-09-02T05:11:40.026Z,8.59
2022-09-02T05:14:07.276Z,8.70
2022-09-02T05:16:37.264Z,8.76
2022-09-02T05:19:05.684Z,8.88
2022-09-02T05:21:32.722Z,9.07
2022-09-02T05:24:02.197Z,9.19
2022-09-02T05:26:29.066Z,9.34
2022-09-02T05:28:56.045Z,9.53
2022-09-02T05:31:27.925Z,9.66
2022-09-02T05:33:55.077Z,9.83
2022-09-02T05:36:29.053Z,9.99
2022-09-02T05:38:56.885Z,10.19
2022-09-02T05:41:25.963Z,10.29
2022-09-02T05:43:55.737Z,10.46
2022-09-02T05:46:24.755Z,10.67
2022-09-02T05:49:17.888Z,10.75
2022-09-02T05:51:47.687Z,10.81
2022-09-02T05:54:19.319Z,10.98
2022-09-02T05:56:47.302Z,11.02
2022-09-02T05:59:23.616Z,11.13
2022-09-02T06:01:50.667Z,11.27
2022-09-02T06:04:18.778Z,11.39
2022-09-02T06:06:45.905Z,11.45
2022-09-02T06:09:15.393Z,11.61
2022-09-02T06:11:45.691Z,11.75
2022-09-02T06:14:16.724Z,11.77
2022-09-02T06:16:43.770Z,11.95
2022-09-02T06:19:14.344Z,12.05
2022-09-02T06:21:44.565Z,12.16
2022-09-02T06:24:12.330Z,12.32
2022-09-02T06:26:40.657Z,12.49
2022-09-02T06:29:09.357Z,12.54
2022-09-02T06:31:40.627Z,12.67
2022-09-02T06:34:31.748Z,12.78
2022-09-02T06:36:59.560Z,12.90
2022-09-02T06:39:29.467Z,13.10
2022-09-02T06:41:56.290Z,13.23
2022-09-02T06:44:24.244Z,13.31
2022-09-02T06:47:05.451Z,13.40
2022-09-02T06:49:38.562Z,13.52
2022-09-02T06:52:08.986Z,13.60
2022-09-02T06:54:36.950Z,13.66
2022-09-02T06:57:03.986Z,13.74
2022-09-02T06:59:31.147Z,13.84
2022-09-02T07:01:58.391Z,13.86
2022-09-02T07:04:46.003Z,13.94
2022-09-02T07:07:13.108Z,14.09
2022-09-02T07:09:40.365Z,14.11
2022-09-02T07:12:08.753Z,14.30
2022-09-02T07:14:40.559Z,14.42
2022-09-02T07:17:08.363Z,14.53
2022-09-02T07:19:35.952Z,14.58
2022-09-02T07:22:06.481Z,14.69
2022-09-02T07:24:33.402Z,14.81
2022-09-02T07:27:02.411Z,14.92
2022-09-02T07:29:34.783Z,14.96
2022-09-02T07:32:02.725Z,15.07
2022-09-02T07:34:29.717Z,15.20
2022-09-02T07:37:08.631Z,15.37
2022-09-02T07:39:39.439Z,15.44
2022-09-02T07:42:07.563Z,15.55
2022-09-02T07:44:37.023Z,15.72
2022-09-02T07:47:06.817Z,15.81
2022-09-02T07:52:29.618Z,15.98
2022-09-02T07:54:56.741Z,16.07
2022-09-02T07:57:24.968Z,16.13
2022-09-02T07:59:51.838Z,16.30
2022-09-02T08:02:19.435Z,16.46
2022-09-02T08:04:47.183Z,16.67
2022-09-02T08:07:16.836Z,16.78
2022-09-02T08:09:43.957Z,16.90
2022-09-02T08:12:12.857Z,17.04
2022-09-02T08:14:40.402Z,17.15
2022-09-02T08:17:19.164Z,17.32
2022-09-02T08:19:50.046Z,17.43
2022-09-02T08:22:17.905Z,17.50
2022-09-02T08:24:44.850Z,17.64
2022-09-02T08:27:11.884Z,17.76
2022-09-02T08:29:40.684Z,17.91
2022-09-02T08:32:07.730Z,18.00
2022-09-02T08:34:35.284Z,18.18
2022-09-02T08:37:08.466Z,18.31
2022-09-02T08:39:35.606Z,18.51
2022-09-02T08:42:08.047Z,18.66
2022-09-02T08:44:37.932Z,18.71
2022-09-02T08:47:06.742Z,18.86
2022-09-02T08:49:40.841Z,18.98
2022-09-02T08:52:08.020Z,19.09
2022-09-02T08:54:58.063Z,19.23
2022-09-02T08:57:27.904Z,19.30
2022-09-02T08:59:57.466Z,19.47
2022-09-02T09:02:31.609Z,19.70
2022-09-02T09:05:16.261Z,19.86
2022-09-02T09:08:00.609Z,20.07
2022-09-02T09:10:34.832Z,20.20
2022-09-02T09:13:14.565Z,20.37
2022-09-02T09:15:49.710Z,20.50
2022-09-02T09:18:19.402Z,20.59
2022-09-02T09:20:47.455Z,20.52
2022-09-02T09:23:23.203Z,20.50
2022-09-02T09:25:55.914Z,20.55
2022-09-02T09:28:22.914Z,20.80
2022-09-02T09:30:51.097Z,21.05
2022-09-02T09:33:22.885Z,21.20
2022-09-02T09:35:52.845Z,21.44
2022-09-02T09:38:30.803Z,21.60
2022-09-02T09:41:31.295Z,21.94
2022-09-02T09:43:59.084Z,22.40
2022-09-02T09:46:35.123Z,22.52
2022-09-02T09:49:04.052Z,22.80
2022-09-02T09:51:49.775Z,23.11
2022-09-02T09:54:18.292Z,23.36
2022-09-02T09:56:47.447Z,23.63
2022-09-02T09:59:33.827Z,23.51
2022-09-02T10:02:01.087Z,22.77
2022-09-02T10:04:42.821Z,22.64
2022-09-02T10:07:35.132Z,22.83
2022-09-02T10:10:29.213Z,23.10
2022-09-02T10:13:01.338Z,23.48
2022-09-02T10:15:45.540Z,23.18
2022-09-02T10:18:23.060Z,23.33
2022-09-02T10:21:14.832Z,23.26
2022-09-02T10:24:01.847Z,23.00
2022-09-02T10:26:29.681Z,23.06
2022-09-02T10:29:16.090Z,23.16
2022-09-02T10:31:43.148Z,23.42
2022-09-02T10:34:35.076Z,23.45
2022-09-02T10:37:11.150Z,23.49
2022-09-02T10:40:14.572Z,23.46
2022-09-02T10:42:48.485Z,23.42
2022-09-02T10:45:24.890Z,23.26
2022-09-02T10:48:09.584Z,23.12
2022-09-02T10:50:48.136Z,22.98
2022-09-02T10:53:25.019Z,22.84
2022-09-02T10:56:02.323Z,22.90
2022-09-02T10:58:39.142Z,22.96
2022-09-02T11:01:07.903Z,23.04
2022-09-02T11:03:55.097Z,22.94
2022-09-02T11:06:40.300Z,22.96
2022-09-02T11:09:17.918Z,22.91
2022-09-02T11:11:51.223Z,22.94
2022-09-02T11:14:41.581Z,22.98
2022-09-02T11:17:17.709Z,23.06
2022-09-02T11:20:17.770Z,23.19
2022-09-02T11:23:03.760Z,23.08
2022-09-02T11:25:34.574Z,23.09
2022-09-02T11:28:06.395Z,23.06
2022-09-02T11:30:47.773Z,23.09
2022-09-02T11:33:19.414Z,23.14
2022-09-02T11:35:46.414Z,23.03
2022-09-02T11:38:16.040Z,22.98
2022-09-02T11:43:44.975Z,22.97
2022-09-02T11:46:31.447Z,23.01
2022-09-02T11:48:58.470Z,23.63
2022-09-02T11:51:32.948Z,24.61
2022-09-02T11:54:09.766Z,25.50
2022-09-02T11:56:41.247Z,26.13
2022-09-02T11:59:08.853Z,26.37
2022-09-02T12:01:43.880Z,26.28
2022-09-02T12:07:09.644Z,25.76
2022-09-02T12:12:36.956Z,24.50
2022-09-02T12:15:11.856Z,24.24
2022-09-02T12:17:47.119Z,23.93
2022-09-02T12:20:46.967Z,23.85
2022-09-02T12:23:38.803Z,23.76
2022-09-02T12:26:07.512Z,23.47
2022-09-02T12:28:35.409Z,23.33
2022-09-02T12:31:08.011Z,23.07
2022-09-02T12:33:39.965Z,23.04
2022-09-02T12:36:08.173Z,23.04
2022-09-02T12:38:42.190Z,22.87
2022-09-02T12:41:17.996Z,22.84
2022-09-02T12:43:48.428Z,22.92
2022-09-02T12:46:15.468Z,22.96
2022-09-02T12:48:44.709Z,22.99
2022-09-02T12:51:11.645Z,22.84
2022-09-02T12:53:39.514Z,22.73
2022-09-02T12:56:15.611Z,22.63
2022-09-02T12:58:48.632Z,22.72
2022-09-02T13:01:24.548Z,22.77
2022-09-02T13:04:01.024Z,22.74
2022-09-02T13:06:40.962Z,22.97
2022-09-02T13:09:35.327Z,23.11
2022-09-02T13:12:05.324Z,23.36
2022-09-02T13:14:52.042Z,23.56
2022-09-02T13:17:36.221Z,23.74
2022-09-02T13:20:11.361Z,23.80
2022-09-02T13:22:38.295Z,23.85
2022-09-02T13:25:25.468Z,23.95
2022-09-02T13:27:53.454Z,23.99
2022-09-02T13:30:44.218Z,23.95
2022-09-02T13:33:12.204Z,23.97
2022-09-02T13:35:53.982Z,24.03
2022-09-02T13:38:23.698Z,23.97
2022-09-02T13:40:50.810Z,23.75
2022-09-02T13:43:20.073Z,23.65
2022-09-02T13:45:48.443Z,23.53
2022-09-02T13:48:17.860Z,23.55
2022-09-02T13:50:47.010Z,23.64
2022-09-02T13:56:10.364Z,23.65
2022-09-02T13:58:37.366Z,23.67
2022-09-02T14:01:19.065Z,23.75
2022-09-02T14:03:53.577Z,23.72
2022-09-02T14:06:29.670Z,23.62
2022-09-02T14:09:22.063Z,23.65
2022-09-02T14:11:51.206Z,23.55
2022-09-02T14:14:22.282Z,23.49
2022-09-02T14:16:53.094Z,23.45
2022-09-02T14:19:21.105Z,23.52
2022-09-02T14:22:12.047Z,23.63
2022-09-02T14:24:45.038Z,23.98
2022-09-02T14:27:18.433Z,24.17
2022-09-02T14:29:46.871Z,24.28
2022-09-02T14:32:25.866Z,24.74
2022-09-02T14:35:15.414Z,25.73
2022-09-02T14:37:56.062Z,26.64
2022-09-02T14:40:40.658Z,27.29
2022-09-02T14:43:21.143Z,27.59
2022-09-02T14:45:50.873Z,27.97
2022-09-02T14:48:48.601Z,28.17
2022-09-02T14:51:19.291Z,28.09
2022-09-02T14:53:54.485Z,28.01
2022-09-02T14:56:41.326Z,27.41
2022-09-02T14:59:08.316Z,27.02
2022-09-02T15:01:39.160Z,26.53
2022-09-02T15:04:06.291Z,26.10
2022-09-02T15:06:33.207Z,25.54
2022-09-02T15:09:04.379Z,25.26
2022-09-02T15:11:31.762Z,24.94
2022-09-02T15:13:58.783Z,24.78
2022-09-02T15:16:56.808Z,24.65
2022-09-02T15:19:23.745Z,24.25
2022-09-02T15:22:01.636Z,24.06
2022-09-02T15:24:35.620Z,23.87
2022-09-02T15:27:04.204Z,23.69
2022-09-02T15:29:32.341Z,23.56
2022-09-02T15:32:04.857Z,23.43
2022-09-02T15:34:42.606Z,23.26
2022-09-02T15:37:22.458Z,23.09
2022-09-02T15:39:51.569Z,22.96
2022-09-02T15:42:18.570Z,22.79
2022-09-02T15:44:46.536Z,22.67
2022-09-02T15:47:13.615Z,22.59
2022-09-02T15:49:41.531Z,22.43
2022-09-02T15:52:08.447Z,22.32
2022-09-02T15:54:35.343Z,22.17
2022-09-02T15:57:04.137Z,22.11
2022-09-02T15:59:31.123Z,22.25
2022-09-02T16:02:01.125Z,22.72
2022-09-02T16:04:28.112Z,23.11
2022-09-02T16:06:54.990Z,23.20
2022-09-02T16:09:22.305Z,23.31
2022-09-02T16:11:53.101Z,23.24
2022-09-02T16:14:21.605Z,23.09
2022-09-02T16:16:56.613Z,22.91
2022-09-02T16:19:28.725Z,22.77
2022-09-02T16:21:58.085Z,22.62
2022-09-02T16:24:27.292Z,22.51
2022-09-02T16:27:06.194Z,22.39
2022-09-02T16:29:33.413Z,22.25
2022-09-02T16:32:26.837Z,22.11
2022-09-02T16:34:49.391Z,21.93
2022-09-02T16:37:19.740Z,21.78
2022-09-02T16:40:11.880Z,21.67
2022-09-02T16:42:38.801Z,21.40
2022-09-02T16:45:07.977Z,21.32
2022-09-02T16:47:37.844Z,21.25
2022-09-02T16:50:04.915Z,21.13
2022-09-02T16:52:35.072Z,21.03
2022-09-02T16:55:02.902Z,20.88
2022-09-02T16:57:29.795Z,20.84
2022-09-02T16:59:56.721Z,20.77
2022-09-02T17:02:23.871Z,20.69
2022-09-02T17:04:50.970Z,20.53
2022-09-02T17:07:31.039Z,20.51
2022-09-02T17:09:57.965Z,20.46
2022-09-02T17:12:24.986Z,20.37
2022-09-02T17:14:51.774Z,20.29
2022-09-02T17:17:18.896Z,20.19
2022-09-02T17:19:52.851Z,20.11
2022-09-02T17:22:20.086Z,19.98
2022-09-02T17:24:50.491Z,19.92
2022-09-02T17:27:21.061Z,19.85
2022-09-02T17:29:50.012Z,19.78
2022-09-02T17:32:17.846Z,19.72
2022-09-02T17:34:44.842Z,19.70
2022-09-02T17:37:13.137Z,19.62
2022-09-02T17:39:42.135Z,19.57
2022-09-02T17:42:16.347Z,19.51
2022-09-02T17:44:44.323Z,19.45
2022-09-02T17:47:15.176Z,19.42
2022-09-02T17:49:44.867Z,19.32
2022-09-02T17:52:14.859Z,19.23
2022-09-02T17:54:43.353Z,19.20
2022-09-02T17:57:31.295Z,19.13
2022-09-02T18:00:16.604Z,19.14
2022-09-02T18:02:48.505Z,19.07
2022-09-02T18:05:19.077Z,19.09
2022-09-02T18:07:48.806Z,18.97
2022-09-02T18:10:25.709Z,18.96
2022-09-02T18:12:52.582Z,18.88
2022-09-02T18:15:21.836Z,18.75
2022-09-02T18:17:50.427Z,18.78
2022-09-02T18:20:21.507Z,18.65
2022-09-02T18:22:49.461Z,18.58
2022-09-02T18:25:29.860Z,18.55
2022-09-02T18:28:26.080Z,18.52
2022-09-02T18:30:55.051Z,18.49
2022-09-02T18:33:34.366Z,18.43
2022-09-02T18:36:04.060Z,18.36
2022-09-02T18:38:31.953Z,18.33
2022-09-02T18:41:14.987Z,18.24
2022-09-02T18:44:09.239Z,18.22
2022-09-02T18:47:09.102Z,18.17
2022-09-02T18:49:44.907Z,18.10
2022-09-02T18:52:14.521Z,18.10
2022-09-02T18:58:10.631Z,18.05
2022-09-02T19:00:51.003Z,17.91
2022-09-02T19:03:42.532Z,17.89
2022-09-02T19:06:12.339Z,17.85
2022-09-02T19:08:40.860Z,17.88
2022-09-02T19:11:09.961Z,17.88
2022-09-02T19:14:08.892Z,17.83
2022-09-02T19:16:37.248Z,17.87
2022-09-02T19:19:04.871Z,17.82
2022-09-02T19:21:36.611Z,17.81
2022-09-02T19:24:07.594Z,17.79
2022-09-02T19:26:44.111Z,17.76
2022-09-02T19:29:18.414Z,17.74
2022-09-02T19:31:49.832Z,17.76
2022-09-02T19:34:18.394Z,17.69
2022-09-02T19:36:53.554Z,17.55
2022-09-02T19:39:22.280Z,17.52
2022-09-02T19:41:54.563Z,17.50
2022-09-02T19:44:29.353Z,17.49
2022-09-02T19:49:52.388Z,17.29
2022-09-02T19:52:21.288Z,17.34
2022-09-02T19:55:02.816Z,17.26
2022-09-02T19:57:31.861Z,17.28
2022-09-02T20:00:05.684Z,17.29
2022-09-02T20:02:34.876Z,17.21
2022-09-02T20:05:01.895Z,17.07
2022-09-02T20:07:29.167Z,17.10
2022-09-02T20:09:59.185Z,17.06
2022-09-02T20:12:29.165Z,17.02
2022-09-02T20:14:59.090Z,17.02
2022-09-02T20:17:32.455Z,16.98
2022-09-02T20:20:12.494Z,16.95
2022-09-02T20:22:39.506Z,16.83
2022-09-02T20:25:06.559Z,16.87
2022-09-02T20:27:40.273Z,16.75
2022-09-02T20:30:16.279Z,16.74
2022-09-02T20:32:45.280Z,16.62
2022-09-02T20:35:16.636Z,16.68
2022-09-02T20:37:54.737Z,16.62
2022-09-02T20:40:29.756Z,16.61
2022-09-02T20:43:09.159Z,16.46
2022-09-02T20:45:57.706Z,16.45
2022-09-02T20:48:44.340Z,16.34
2022-09-02T20:51:32.147Z,16.34
2022-09-02T20:54:15.895Z,16.33
2022-09-02T20:57:08.392Z,16.17
2022-09-02T20:59:55.369Z,16.08
2022-09-02T21:02:26.380Z,16.03
2022-09-02T21:05:01.546Z,15.98
2022-09-02T21:07:49.781Z,15.95
2022-09-02T21:10:23.264Z,15.94
2022-09-02T21:12:55.680Z,15.78
2022-09-02T21:16:01.098Z,15.74
2022-09-02T21:18:48.088Z,15.62
2022-09-02T21:21:34.170Z,15.64
2022-09-02T21:24:06.762Z,15.47
2022-09-02T21:26:36.535Z,15.38
2022-09-02T21:29:37.043Z,15.27
2022-09-02T21:32:09.971Z,15.19
2022-09-02T21:35:06.484Z,15.25
2022-09-02T21:37:46.633Z,15.07
2022-09-02T21:40:19.172Z,15.06
2022-09-02T21:43:10.616Z,14.98
2022-09-02T21:45:37.598Z,14.99
2022-09-02T21:48:15.990Z,15.00
2022-09-02T21:50:58.984Z,14.91
2022-09-02T21:53:33.332Z,14.93
2022-09-02T21:56:20.570Z,14.84
2022-09-02T21:59:03.948Z,14.76
2022-09-02T22:01:56.049Z,14.70
2022-09-02T22:04:32.335Z,14.62
2022-09-02T22:07:19.482Z,14.52
2022-09-02T22:09:50.681Z,14.61
2022-09-02T22:12:26.858Z,14.61
2022-09-02T22:14:59.991Z,14.63
2022-09-02T22:17:44.835Z,14.56
2022-09-02T22:20:15.350Z,14.53
2022-09-02T22:22:55.776Z,14.52
2022-09-02T22:25:23.405Z,14.38
2022-09-02T22:28:13.001Z,14.38
2022-09-02T22:30:44.873Z,14.45
2022-09-02T22:33:14.487Z,14.35
2022-09-02T22:36:00.930Z,14.31
2022-09-02T22:38:42.067Z,14.19
2022-09-02T22:41:46.006Z,14.08
2022-09-02T22:44:26.850Z,13.99
2022-09-02T22:47:23.395Z,14.02
2022-09-02T22:50:21.933Z,13.96
2022-09-02T22:52:55.555Z,13.83
2022-09-02T22:55:26.841Z,13.78
2022-09-02T22:58:21.471Z,13.84
2022-09-02T23:01:11.120Z,13.77
2022-09-02T23:03:43.255Z,13.66
2022-09-02T23:06:20.130Z,13.71
2022-09-02T23:08:49.289Z,13.55
2022-09-02T23:11:25.335Z,13.55
2022-09-02T23:14:23.719Z,13.56
2022-09-02T23:16:53.525Z,13.53
2022-09-02T23:19:29.542Z,13.37
2022-09-02T23:22:04.826Z,13.35
2022-09-02T23:24:54.491Z,13.32
2022-09-02T23:27:46.413Z,13.35
2022-09-02T23:30:14.752Z,13.25
2022-09-02T23:33:07.943Z,13.25
2022-09-02T23:35:46.406Z,13.24
2022-09-02T23:38:20.405Z,13.15
2022-09-02T23:40:51.760Z,13.03
2022-09-02T23:43:20.125Z,13.09
2022-09-02T23:45:50.086Z,13.03
2022-09-02T23:48:32.302Z,12.90
2022-09-02T23:51:16.425Z,12.76
2022-09-02T23:53:59.518Z,12.74
2022-09-02T23:56:47.663Z,12.61
2022-09-02T23:59:48.686Z,12.57
